createdAt,value
2018-09-03T00:00:30.068Z,53.25
2018-09-03T00:02:58.280Z,53.68
2018-09-03T00:05:26.548Z,53.53
2018-09-03T00:07:54.744Z,54.14
2018-09-03T00:10:22.967Z,54.60
2018-09-03T00:12:51.200Z,54.56
2018-09-03T00:15:19.426Z,53.98
2018-09-03T00:17:47.634Z,54.88
2018-09-03T00:20:15.860Z,54.84
2018-09-03T00:22:44.160Z,54.57
2018-09-03T00:25:12.381Z,55.14
2018-09-03T00:27:40.616Z,55.27
2018-09-03T00:30:08.855Z,55.11
2018-09-03T00:32:42.276Z,54.55
2018-09-03T00:35:15.759Z,55.17
2018-09-03T00:37:49.401Z,54.80
2018-09-03T00:40:22.935Z,54.93
2018-09-03T00:42:56.468Z,54.44
2018-09-03T00:45:29.993Z,55.31
2018-09-03T00:47:58.208Z,54.81
2018-09-03T00:50:26.460Z,55.36
2018-09-03T00:52:54.703Z,55.71
2018-09-03T00:55:22.928Z,56.13
2018-09-03T00:57:51.128Z,56.69
2018-09-03T01:00:19.368Z,56.17
2018-09-03T01:02:47.560Z,56.54
2018-09-03T01:05:15.767Z,56.35
2018-09-03T01:07:44.030Z,56.89
2018-09-03T01:10:12.240Z,56.64
2018-09-03T01:12:40.468Z,57.67
2018-09-03T01:15:08.685Z,57.51
2018-09-03T01:17:36.900Z,57.33
2018-09-03T01:20:05.109Z,57.82
2018-09-03T01:22:33.336Z,57.66
2018-09-03T01:25:01.600Z,58.40
2018-09-03T01:27:29.867Z,57.65
2018-09-03T01:29:58.072Z,57.99
2018-09-03T01:32:26.300Z,58.49
2018-09-03T01:34:54.511Z,59.08
2018-09-03T01:37:22.747Z,58.55
2018-09-03T01:39:50.939Z,59.60
2018-09-03T01:42:19.147Z,59.31
2018-09-03T01:44:47.368Z,59.58
2018-09-03T01:47:15.618Z,59.02
2018-09-03T01:49:43.844Z,59.46
2018-09-03T01:52:12.072Z,58.99
2018-09-03T01:54:40.297Z,58.82
2018-09-03T01:57:08.504Z,58.43
2018-09-03T01:59:36.692Z,58.40
2018-09-03T02:02:04.935Z,58.47
2018-09-03T02:04:33.141Z,58.49
2018-09-03T02:07:01.347Z,58.04
2018-09-03T02:09:29.560Z,57.66
2018-09-03T02:11:57.845Z,57.54
2018-09-03T02:14:26.140Z,58.39
2018-09-03T02:16:54.408Z,58.52
2018-09-03T02:19:22.712Z,58.24
2018-09-03T02:21:50.973Z,58.68
2018-09-03T02:24:19.227Z,58.94
2018-09-03T02:26:47.493Z,59.68
2018-09-03T02:29:15.787Z,59.83
2018-09-03T02:31:44.074Z,59.09
2018-09-03T02:34:12.351Z,60.37
2018-09-03T02:36:40.655Z,60.51
2018-09-03T02:39:08.989Z,60.10
2018-09-03T02:41:37.249Z,60.28
2018-09-03T02:44:05.515Z,59.83
2018-09-03T02:46:33.762Z,60.21
2018-09-03T02:49:02.089Z,60.57
2018-09-03T02:51:30.397Z,60.78
2018-09-03T02:53:58.727Z,60.94
2018-09-03T02:56:27.017Z,60.43
2018-09-03T02:58:55.318Z,60.14
2018-09-03T03:01:23.621Z,60.24
2018-09-03T03:03:51.907Z,60.79
2018-09-03T03:06:20.148Z,60.82
2018-09-03T03:08:48.382Z,60.96
2018-09-03T03:11:16.634Z,60.82
2018-09-03T03:13:44.836Z,59.84
2018-09-03T03:16:13.072Z,60.19
2018-09-03T03:18:41.340Z,60.56
2018-09-03T03:21:09.609Z,60.61
2018-09-03T03:23:37.805Z,60.13
2018-09-03T03:26:06.044Z,59.91
2018-09-03T03:28:34.385Z,60.04
2018-09-03T03:31:02.639Z,60.37
2018-09-03T03:33:30.904Z,61.11
2018-09-03T03:35:59.209Z,61.07
2018-09-03T03:38:27.553Z,60.68
2018-09-03T03:40:55.820Z,61.46
2018-09-03T03:43:24.045Z,61.33
2018-09-03T03:45:52.279Z,61.50
2018-09-03T03:48:20.492Z,60.81
2018-09-03T03:50:48.744Z,61.07
2018-09-03T03:53:16.990Z,61.57
2018-09-03T03:55:45.224Z,61.25
2018-09-03T03:58:13.454Z,60.42
2018-09-03T04:00:41.740Z,61.34
2018-09-03T04:03:09.962Z,61.13
2018-09-03T04:05:38.212Z,61.88
2018-09-03T04:08:06.474Z,62.19
2018-09-03T04:10:34.745Z,63.02
2018-09-03T04:13:05.368Z,62.42
2018-09-03T04:15:35.144Z,63.01
2018-09-03T04:18:03.949Z,63.22
2018-09-03T04:20:32.208Z,63.07
2018-09-03T04:23:00.468Z,63.33
2018-09-03T04:25:28.690Z,63.10
2018-09-03T04:27:56.972Z,63.36
2018-09-03T04:30:25.196Z,63.28
2018-09-03T04:32:53.876Z,63.20
2018-09-03T04:35:22.160Z,63.81
2018-09-03T04:37:50.379Z,63.92
2018-09-03T04:40:18.588Z,64.29
2018-09-03T04:42:46.820Z,64.78
2018-09-03T04:45:15.088Z,64.28
2018-09-03T04:47:43.392Z,64.33
2018-09-03T04:50:11.613Z,64.48
2018-09-03T04:52:39.857Z,64.49
2018-09-03T04:55:08.144Z,64.06
2018-09-03T04:57:36.349Z,63.71
2018-09-03T05:00:05.535Z,63.45
2018-09-03T05:02:33.744Z,63.38
2018-09-03T05:05:02.006Z,63.53
2018-09-03T05:07:30.232Z,63.05
2018-09-03T05:09:58.440Z,63.16
2018-09-03T05:12:26.673Z,63.76
2018-09-03T05:17:34.459Z,64.55
2018-09-03T05:20:02.684Z,64.80
2018-09-03T05:22:30.880Z,65.53
2018-09-03T05:24:59.148Z,65.44
2018-09-03T05:27:27.342Z,65.72
2018-09-03T05:29:55.595Z,66.58
2018-09-03T05:32:23.810Z,66.52
2018-09-03T05:34:52.037Z,65.72
2018-09-03T05:37:20.252Z,66.03
2018-09-03T05:39:48.480Z,65.66
2018-09-03T05:42:16.689Z,66.00
2018-09-03T05:44:44.908Z,66.13
2018-09-03T05:47:13.124Z,65.61
2018-09-03T05:49:41.365Z,66.27
2018-09-03T05:52:09.629Z,67.20
2018-09-03T05:54:37.892Z,67.66
2018-09-03T05:57:06.116Z,67.76
2018-09-03T05:59:34.336Z,68.07
2018-09-03T06:02:02.581Z,68.71
2018-09-03T06:04:30.820Z,69.08
2018-09-03T06:06:59.037Z,69.49
2018-09-03T06:09:27.255Z,69.36
2018-09-03T06:11:55.464Z,69.42
2018-09-03T06:14:23.768Z,68.99
2018-09-03T06:16:51.991Z,69.35
2018-09-03T06:19:20.224Z,69.12
2018-09-03T06:21:48.427Z,68.60
2018-09-03T06:24:16.631Z,69.17
2018-09-03T06:26:44.905Z,68.67
2018-09-03T06:29:13.097Z,68.61
2018-09-03T06:31:41.332Z,68.28
2018-09-03T06:34:09.549Z,68.67
2018-09-03T06:36:37.775Z,68.17
2018-09-03T06:39:07.664Z,68.22
2018-09-03T06:41:35.929Z,68.13
2018-09-03T06:44:04.144Z,67.51
2018-09-03T06:46:32.618Z,67.86
2018-09-03T06:49:00.848Z,67.83
2018-09-03T06:51:29.075Z,67.95
2018-09-03T06:53:57.347Z,67.70
2018-09-03T06:56:25.572Z,67.96
2018-09-03T06:58:53.796Z,68.43
2018-09-03T07:01:22.011Z,68.72
2018-09-03T07:03:50.220Z,68.23
2018-09-03T07:06:18.449Z,68.07
2018-09-03T07:08:46.646Z,67.90
2018-09-03T07:11:14.903Z,67.95
2018-09-03T07:13:43.109Z,68.09
2018-09-03T07:16:11.399Z,67.63
2018-09-03T07:18:39.676Z,67.80
2018-09-03T07:21:07.860Z,67.61
2018-09-03T07:23:36.085Z,66.93
2018-09-03T07:26:04.291Z,67.07
2018-09-03T07:28:32.519Z,65.48
2018-09-03T07:31:00.725Z,65.93
2018-09-03T07:33:28.961Z,65.13
2018-09-03T07:35:57.244Z,65.79
2018-09-03T07:38:25.995Z,64.65
2018-09-03T07:40:54.198Z,64.25
2018-09-03T07:43:22.442Z,64.45
2018-09-03T07:45:50.641Z,64.17
2018-09-03T07:48:18.876Z,64.25
2018-09-03T07:50:47.093Z,64.47
2018-09-03T07:53:15.332Z,63.68
2018-09-03T07:55:43.540Z,63.73
2018-09-03T07:58:11.808Z,63.35
2018-09-03T08:00:40.021Z,62.96
2018-09-03T08:03:08.265Z,62.63
2018-09-03T08:05:36.475Z,61.54
2018-09-03T08:08:04.765Z,62.15
2018-09-03T08:10:32.991Z,61.64
2018-09-03T08:13:01.268Z,61.56
2018-09-03T08:15:29.464Z,61.44
2018-09-03T08:17:57.707Z,61.30
2018-09-03T08:20:25.921Z,61.72
2018-09-03T08:22:54.156Z,60.88
2018-09-03T08:25:22.370Z,61.45
2018-09-03T08:27:50.584Z,61.02
2018-09-03T08:30:18.913Z,61.52
2018-09-03T08:32:47.164Z,62.62
2018-09-03T08:35:15.428Z,62.17
2018-09-03T08:37:43.648Z,62.72
2018-09-03T08:40:11.876Z,61.40
2018-09-03T08:42:40.086Z,61.11
2018-09-03T08:45:08.304Z,60.42
2018-09-03T08:47:36.509Z,60.42
2018-09-03T08:50:04.745Z,60.70
2018-09-03T08:52:32.972Z,61.25
2018-09-03T08:55:01.234Z,60.00
2018-09-03T08:57:29.436Z,59.86
2018-09-03T08:59:57.672Z,59.40
2018-09-03T09:02:25.868Z,59.12
2018-09-03T09:04:54.096Z,58.93
2018-09-03T09:07:22.312Z,58.89
2018-09-03T09:09:50.539Z,59.04
2018-09-03T09:12:18.765Z,57.76
2018-09-03T09:14:46.989Z,57.98
2018-09-03T09:17:15.291Z,57.78
2018-09-03T09:19:43.532Z,57.04
2018-09-03T09:22:11.752Z,57.19
2018-09-03T09:24:39.996Z,57.60
2018-09-03T09:27:08.200Z,57.86
2018-09-03T09:29:36.408Z,56.98
2018-09-03T09:32:04.652Z,56.11
2018-09-03T09:34:32.870Z,55.86
2018-09-03T09:37:01.148Z,56.42
2018-09-03T09:39:29.350Z,55.96
2018-09-03T09:41:57.576Z,55.98
2018-09-03T09:44:25.816Z,55.83
2018-09-03T09:46:54.050Z,56.47
2018-09-03T09:49:23.644Z,55.85
2018-09-03T09:51:51.872Z,55.31
2018-09-03T09:54:20.124Z,55.10
2018-09-03T09:56:48.368Z,55.82
2018-09-03T09:59:16.630Z,55.28
2018-09-03T10:01:44.875Z,55.21
2018-09-03T10:04:13.134Z,54.62
2018-09-03T10:06:41.355Z,54.61
2018-09-03T10:09:09.580Z,54.89
2018-09-03T10:11:37.820Z,53.76
2018-09-03T10:14:06.403Z,53.19
2018-09-03T10:16:34.693Z,52.89
2018-09-03T10:19:02.917Z,53.04
2018-09-03T10:21:31.151Z,52.99
2018-09-03T10:23:59.363Z,52.91
2018-09-03T10:26:27.609Z,51.93
2018-09-03T10:28:55.856Z,52.10
2018-09-03T10:31:24.125Z,52.54
2018-09-03T10:33:52.347Z,52.74
2018-09-03T10:36:20.580Z,52.60
2018-09-03T10:38:48.833Z,52.80
2018-09-03T10:41:17.037Z,52.56
2018-09-03T10:43:45.281Z,51.65
2018-09-03T10:46:13.507Z,52.27
2018-09-03T10:48:41.916Z,51.71
2018-09-03T10:51:10.219Z,51.79
2018-09-03T10:53:38.476Z,51.24
2018-09-03T10:56:06.831Z,51.84
2018-09-03T10:58:35.052Z,50.47
2018-09-03T11:01:03.272Z,49.98
2018-09-03T11:03:31.508Z,50.62
2018-09-03T11:05:59.720Z,49.82
2018-09-03T11:08:27.955Z,50.75
2018-09-03T11:10:56.179Z,50.50
2018-09-03T11:13:24.439Z,50.77
2018-09-03T11:15:52.656Z,49.57
2018-09-03T11:18:20.908Z,49.40
2018-09-03T11:20:49.143Z,48.90
2018-09-03T11:23:17.392Z,49.10
2018-09-03T11:25:45.636Z,48.81
2018-09-03T11:28:13.880Z,48.26
2018-09-03T11:30:42.106Z,49.62
2018-09-03T11:33:10.374Z,48.22
2018-09-03T11:35:38.588Z,48.18
2018-09-03T11:38:06.822Z,47.94
2018-09-03T11:40:35.072Z,47.73
2018-09-03T11:43:03.291Z,47.65
2018-09-03T11:45:31.532Z,47.56
2018-09-03T11:47:59.764Z,47.31
2018-09-03T11:50:27.996Z,46.80
2018-09-03T11:52:56.219Z,46.18
2018-09-03T11:55:24.473Z,46.35
2018-09-03T11:57:52.728Z,46.26
2018-09-03T12:00:26.861Z,45.65
2018-09-03T12:02:55.140Z,45.59
2018-09-03T12:05:23.419Z,45.83
2018-09-03T12:07:51.645Z,45.49
2018-09-03T12:10:19.895Z,45.39
2018-09-03T12:12:48.276Z,46.09
2018-09-03T12:15:24.068Z,44.94
2018-09-03T12:17:52.340Z,45.92
2018-09-03T12:20:20.592Z,45.24
2018-09-03T12:22:48.867Z,44.25
2018-09-03T12:25:18.164Z,44.48
2018-09-03T12:27:46.442Z,46.38
2018-09-03T12:30:14.658Z,45.80
2018-09-03T12:32:43.103Z,45.11
2018-09-03T12:35:11.372Z,45.23
2018-09-03T12:37:39.597Z,44.69
2018-09-03T12:40:07.829Z,44.27
2018-09-03T12:42:36.072Z,44.92
2018-09-03T12:45:04.391Z,44.51
2018-09-03T12:47:32.711Z,44.62
2018-09-03T13:03:27.183Z,42.25
2018-09-03T13:05:56.854Z,42.55
2018-09-03T13:08:26.466Z,42.16
2018-09-03T13:26:09.503Z,41.78
2018-09-03T13:28:37.720Z,43.17
2018-09-03T13:31:05.987Z,40.45
2018-09-03T13:33:34.218Z,39.91
2018-09-03T13:36:02.593Z,40.34
2018-09-03T13:38:30.820Z,40.10
2018-09-03T13:40:59.065Z,40.31
2018-09-03T13:43:27.328Z,40.60
2018-09-03T13:45:55.549Z,40.24
2018-09-03T13:48:23.831Z,40.53
2018-09-03T13:50:52.028Z,40.56
2018-09-03T14:06:38.496Z,40.08
2018-09-03T14:09:08.178Z,40.69
2018-09-03T14:11:36.547Z,39.66
2018-09-03T14:14:05.094Z,40.79
2018-09-03T14:16:33.825Z,40.15
2018-09-03T14:19:02.252Z,40.90
2018-09-03T14:21:30.651Z,41.43
2018-09-03T14:23:58.928Z,40.78
2018-09-03T14:26:27.954Z,41.35
2018-09-03T14:28:56.436Z,41.27
2018-09-03T14:31:24.684Z,40.76
2018-09-03T14:33:54.213Z,41.46
2018-09-03T14:36:22.680Z,41.50
2018-09-03T14:38:51.644Z,41.02
2018-09-03T14:41:20.242Z,41.04
2018-09-03T14:43:48.608Z,40.36
2018-09-03T14:46:16.848Z,40.62
2018-09-03T14:48:46.448Z,41.37
2018-09-03T14:51:15.025Z,39.83
2018-09-03T14:53:43.428Z,40.60
2018-09-03T14:56:11.830Z,39.96
2018-09-03T14:58:44.064Z,40.63
2018-09-03T15:01:12.404Z,40.78
2018-09-03T15:03:40.729Z,39.51
2018-09-03T15:06:10.233Z,39.52
2018-09-03T15:08:39.812Z,39.48
2018-09-03T15:11:08.666Z,38.85
2018-09-03T15:13:37.004Z,38.91
2018-09-03T15:16:05.239Z,39.60
2018-09-03T15:18:33.705Z,39.72
2018-09-03T15:21:02.121Z,39.33
2018-09-03T15:23:31.200Z,38.19
2018-09-03T15:25:59.472Z,38.76
2018-09-03T15:28:28.076Z,39.01
2018-09-03T15:30:56.580Z,37.92
2018-09-03T15:33:24.809Z,39.00
2018-09-03T15:35:53.132Z,38.71
2018-09-03T15:38:21.356Z,38.58
2018-09-03T15:40:49.719Z,38.19
2018-09-03T15:43:18.103Z,38.87
2018-09-03T15:45:46.436Z,38.01
2018-09-03T15:48:14.733Z,38.30
2018-09-03T15:50:43.010Z,38.22
2018-09-03T15:53:11.272Z,38.29
2018-09-03T15:55:39.512Z,37.86
2018-09-03T15:58:07.825Z,38.14
2018-09-03T16:00:36.097Z,37.78
2018-09-03T16:03:04.480Z,38.76
2018-09-03T16:05:32.671Z,38.74
2018-09-03T16:08:00.910Z,38.05
2018-09-03T16:10:29.143Z,37.78
2018-09-03T16:12:57.412Z,37.95
2018-09-03T16:15:25.688Z,37.91
2018-09-03T16:17:54.107Z,36.83
2018-09-03T16:20:22.736Z,37.44
2018-09-03T16:22:50.972Z,37.62
2018-09-03T16:25:19.208Z,36.93
2018-09-03T16:27:47.503Z,37.72
2018-09-03T16:30:15.688Z,36.76
2018-09-03T16:32:43.944Z,37.33
2018-09-03T16:35:12.152Z,36.54
2018-09-03T16:37:40.401Z,37.02
2018-09-03T16:40:09.251Z,37.13
2018-09-03T16:42:37.492Z,37.19
2018-09-03T16:45:05.797Z,36.80
2018-09-03T16:47:34.042Z,37.78
2018-09-03T16:50:02.277Z,36.58
2018-09-03T16:52:30.593Z,36.61
2018-09-03T16:54:58.840Z,36.92
2018-09-03T16:57:27.160Z,36.85
2018-09-03T16:59:55.436Z,37.79
2018-09-03T17:02:23.652Z,37.46
2018-09-03T17:04:51.939Z,38.03
2018-09-03T17:07:20.213Z,38.14
2018-09-03T17:09:48.492Z,37.84
2018-09-03T17:12:16.700Z,37.48
2018-09-03T17:14:44.949Z,37.91
2018-09-03T17:17:13.196Z,38.70
2018-09-03T17:19:41.912Z,38.05
2018-09-03T17:22:10.237Z,38.48
2018-09-03T17:24:38.472Z,38.84
2018-09-03T17:27:06.700Z,38.73
2018-09-03T17:29:34.954Z,38.56
2018-09-03T17:32:03.197Z,38.86
2018-09-03T17:34:31.452Z,39.51
2018-09-03T17:36:59.687Z,39.18
2018-09-03T17:39:27.924Z,38.94
2018-09-03T17:41:56.160Z,39.82
2018-09-03T17:44:24.416Z,40.67
2018-09-03T17:46:52.648Z,39.39
2018-09-03T17:49:20.973Z,40.17
2018-09-03T17:51:49.164Z,40.06
2018-09-03T17:54:17.426Z,39.28
2018-09-03T17:56:45.669Z,38.36
2018-09-03T17:59:14.024Z,38.30
2018-09-03T18:01:42.276Z,39.31
2018-09-03T18:04:10.840Z,38.44
2018-09-03T18:06:39.076Z,39.00
2018-09-03T18:09:07.556Z,38.25
2018-09-03T18:11:35.927Z,38.87
2018-09-03T18:14:04.299Z,38.33
2018-09-03T18:16:32.767Z,38.83
2018-09-03T18:19:01.041Z,38.98
2018-09-03T18:21:29.456Z,38.87
2018-09-03T18:23:57.720Z,38.27
2018-09-03T18:26:25.989Z,38.42
2018-09-03T18:28:54.263Z,38.57
2018-09-03T18:31:22.563Z,39.00
2018-09-03T18:33:50.801Z,38.41
2018-09-03T18:36:19.095Z,39.05
2018-09-03T18:38:47.418Z,39.23
2018-09-03T18:41:15.774Z,38.92
2018-09-03T18:43:44.139Z,39.87
2018-09-03T18:46:12.440Z,39.75
2018-09-03T18:48:40.726Z,40.59
2018-09-03T18:51:09.067Z,40.60
2018-09-03T18:53:37.451Z,40.60
2018-09-03T18:56:06.035Z,40.17
2018-09-03T18:58:34.549Z,40.41
2018-09-03T19:01:02.899Z,40.10
2018-09-03T19:03:31.273Z,40.84
2018-09-03T19:05:59.701Z,41.06
2018-09-03T19:08:27.973Z,41.38
2018-09-03T19:10:56.253Z,41.41
2018-09-03T19:13:24.586Z,42.21
2018-09-03T19:15:52.898Z,42.85
2018-09-03T19:18:21.321Z,42.94
2018-09-03T19:20:49.702Z,43.07
2018-09-03T19:23:18.014Z,43.24
2018-09-03T19:25:46.336Z,43.97
2018-09-03T19:28:14.612Z,44.72
2018-09-03T19:30:42.848Z,44.52
2018-09-03T19:33:11.696Z,44.07
2018-09-03T19:35:39.901Z,45.11
2018-09-03T19:38:08.147Z,45.81
2018-09-03T19:40:36.495Z,45.75
2018-09-03T19:43:04.746Z,45.87
2018-09-03T19:45:32.985Z,45.92
2018-09-03T19:48:01.219Z,46.60
2018-09-03T19:50:29.449Z,47.11
2018-09-03T19:52:57.727Z,48.12
2018-09-03T19:55:25.993Z,48.60
2018-09-03T19:57:54.216Z,48.31
2018-09-03T20:00:22.460Z,47.95
2018-09-03T20:02:50.692Z,48.75
2018-09-03T20:05:18.901Z,49.01
2018-09-03T20:07:47.187Z,48.34
2018-09-03T20:10:15.420Z,48.39
2018-09-03T20:12:43.645Z,48.39
2018-09-03T20:15:14.144Z,48.36
2018-09-03T20:17:42.384Z,48.92
2018-09-03T20:20:10.624Z,49.79
2018-09-03T20:22:38.861Z,50.38
2018-09-03T20:25:07.241Z,50.37
2018-09-03T20:27:35.469Z,49.53
2018-09-03T20:30:03.705Z,49.93
2018-09-03T20:32:32.400Z,49.61
2018-09-03T20:35:00.627Z,49.81
2018-09-03T20:37:28.905Z,49.99
2018-09-03T20:39:57.216Z,49.42
2018-09-03T20:42:25.426Z,49.61
2018-09-03T20:44:53.892Z,49.98
2018-09-03T20:47:22.040Z,49.97
2018-09-03T20:49:50.300Z,50.40
2018-09-03T20:52:18.557Z,50.80
2018-09-03T20:54:46.877Z,50.07
2018-09-03T20:57:15.141Z,50.62
2018-09-03T20:59:43.411Z,50.95
2018-09-03T21:02:11.632Z,50.79
2018-09-03T21:04:39.895Z,51.25
2018-09-03T21:07:08.365Z,50.60
2018-09-03T21:09:37.361Z,50.71
2018-09-03T21:12:05.652Z,51.38
2018-09-03T21:14:33.933Z,51.19
2018-09-03T21:17:02.170Z,51.40
2018-09-03T21:19:30.389Z,51.52
2018-09-03T21:21:58.674Z,51.91
2018-09-03T21:24:26.948Z,52.29
2018-09-03T21:26:55.195Z,52.11
2018-09-03T21:29:23.430Z,51.60
2018-09-03T21:31:51.673Z,52.30
2018-09-03T21:34:19.908Z,52.09
2018-09-03T21:36:48.249Z,51.91
2018-09-03T21:39:16.522Z,52.40
2018-09-03T21:41:44.740Z,52.02
2018-09-03T21:44:12.980Z,52.78
2018-09-03T21:46:41.250Z,53.07
2018-09-03T21:49:09.896Z,52.92
2018-09-03T21:51:38.152Z,52.72
2018-09-03T21:54:06.480Z,52.54
2018-09-03T21:56:34.724Z,52.67
2018-09-03T21:59:03.000Z,53.38
2018-09-03T22:01:31.248Z,53.35
2018-09-03T22:03:59.517Z,54.00
2018-09-03T22:06:28.984Z,53.68
2018-09-03T22:08:57.553Z,54.39
2018-09-03T22:11:26.104Z,54.22
2018-09-03T22:13:54.323Z,54.18
2018-09-03T22:16:22.640Z,53.97
2018-09-03T22:18:50.901Z,54.88
2018-09-03T22:21:19.220Z,54.09
2018-09-03T22:23:47.491Z,54.29
2018-09-03T22:26:15.764Z,54.50
2018-09-03T22:28:44.012Z,54.65
2018-09-03T22:31:12.233Z,55.16
2018-09-03T22:33:40.465Z,55.42
2018-09-03T22:36:08.776Z,55.00
2018-09-03T22:38:37.152Z,55.16
2018-09-03T22:41:05.659Z,56.05
2018-09-03T22:43:33.884Z,55.61
2018-09-03T22:46:02.120Z,55.63
2018-09-03T22:48:30.361Z,56.38
2018-09-03T22:50:58.628Z,56.53
2018-09-03T22:53:26.871Z,56.56
2018-09-03T22:55:55.077Z,57.05
2018-09-03T22:58:23.312Z,57.68
2018-09-03T23:00:51.537Z,57.79
2018-09-03T23:03:19.809Z,57.76
2018-09-03T23:05:48.201Z,58.24
2018-09-03T23:08:16.292Z,57.85
2018-09-03T23:10:44.516Z,58.13
2018-09-03T23:13:12.769Z,58.86
2018-09-03T23:15:45.155Z,58.90
2018-09-03T23:18:13.423Z,58.12
2018-09-03T23:20:41.652Z,59.25
2018-09-03T23:23:09.875Z,58.39
2018-09-03T23:25:38.135Z,59.05
2018-09-03T23:28:06.349Z,58.61
2018-09-03T23:30:34.588Z,58.06
2018-09-03T23:33:02.808Z,57.90
2018-09-03T23:35:31.052Z,58.67
2018-09-03T23:37:59.289Z,58.12
2018-09-03T23:40:27.528Z,57.66
2018-09-03T23:42:55.764Z,58.34
2018-09-03T23:45:23.999Z,58.22
2018-09-03T23:47:52.212Z,58.20
2018-09-03T23:50:20.455Z,57.08
2018-09-03T23:52:48.696Z,57.12
2018-09-03T23:55:16.948Z,57.60
2018-09-03T23:57:45.221Z,56.86
